KALM/ALM METAR and TAF weather

Enter ICAO airport designator
Station Type Date Time Source
KALM METAR 2021/03/05 00:55 UTC NOAA

KALM 050055Z AUTO 29007KT 10SM CLR 18/M13 A3004 RMK AO2


Station Type Date Time Source
KALM Decoded METAR 2021/03/05 00:55 UTC NOAA

Alamogordo-White, NM, United States (KALM) 32-50N 105-59W
Mar 04, 2021 - 07:55 PM EST / 2021.03.05 0055 UTC
Wind: from the WNW (290 degrees) at 8 MPH (7 KT):0
Visibility: 10 mile(s):0
Sky conditions: clear
Temperature: 64 F (18 C)
Dew Point: 8 F (-13 C)
Relative Humidity: 10%
Pressure (altimeter): 30.04 in. Hg (1017 hPa)
ob: KALM 050055Z AUTO 29007KT 10SM CLR 18/M13 A3004 RMK AO2
cycle: 1

Station Type Date Time Source
KALM TAF UTC NOAA

Error!

Example: see airport list